Time;durP1;ratioP1;P1;durP2;ratioP2;P2;SDS_P1;SDS_P2;PMS_P1;PMS_P2;Temp;Humidity;BMP_temperature;BMP_pressure;BME280_temperature;BME280_humidity;BME280_pressure;Samples;Min_cycle;Max_cycle;Signal;HPM_P1;HPM_P2
2023/10/02 00:01:24;;;;;;;7.10;6.40;;;19.20;99.90;;;;;;5016407;28;20816;-84
2023/10/02 00:04:16;;;;;;;6.70;5.90;;;19.20;99.90;;;;;;4996963;28;20792;-86
2023/10/02 00:06:39;;;;;;;7.93;6.40;;;19.20;99.90;;;;;;5013901;28;20465;-86
2023/10/02 00:09:16;;;;;;;6.00;5.50;;;19.20;99.90;;;;;;5014642;28;20799;-83
2023/10/02 00:11:46;;;;;;;5.97;5.40;;;19.10;99.90;;;;;;5014121;28;20473;-83
2023/10/02 00:14:20;;;;;;;7.53;6.47;;;19.10;99.90;;;;;;5012581;28;20954;-84
2023/10/02 00:17:03;;;;;;;6.03;5.33;;;19.10;99.90;;;;;;5013244;28;20552;-84
2023/10/02 00:19:35;;;;;;;6.83;6.13;;;19.10;99.90;;;;;;5013219;28;20546;-86
2023/10/02 00:22:36;;;;;;;11.80;6.80;;;19.10;99.90;;;;;;5043441;28;20517;-87
2023/10/02 00:25:08;;;;;;;6.50;5.80;;;19.10;99.90;;;;;;5052522;28;20467;-87
2023/10/02 00:27:37;;;;;;;6.00;5.30;;;19.00;99.90;;;;;;5043882;28;20469;-86
2023/10/02 00:30:13;;;;;;;5.17;4.67;;;19.00;99.90;;;;;;5003014;28;20469;-84
2023/10/02 00:32:45;;;;;;;6.97;5.47;;;19.00;99.90;;;;;;5013231;28;20546;-83
2023/10/02 00:35:13;;;;;;;6.60;5.80;;;19.10;99.90;;;;;;5016900;28;20919;-86
2023/10/02 00:37:51;;;;;;;7.87;5.53;;;19.10;99.90;;;;;;5017096;28;20483;-86
2023/10/02 00:40:21;;;;;;;7.53;6.20;;;19.00;99.90;;;;;;4991009;28;20476;-83
2023/10/02 00:42:54;;;;;;;6.47;5.63;;;19.00;99.90;;;;;;5008904;28;21024;-86
2023/10/02 00:45:22;;;;;;;5.93;5.23;;;19.10;99.90;;;;;;5016163;28;20484;-86
2023/10/02 00:50:48;;;;;;;6.47;5.63;;;19.10;99.90;;;;;;5013364;28;20537;-85
2023/10/02 00:53:35;;;;;;;6.13;5.03;;;19.10;99.90;;;;;;5016608;28;20468;-83
2023/10/02 00:56:19;;;;;;;6.87;5.10;;;19.10;99.90;;;;;;5015209;28;20476;-86
2023/10/02 00:58:48;;;;;;;8.07;5.23;;;19.10;99.90;;;;;;5016154;28;20477;-85
2023/10/02 01:01:21;;;;;;;5.70;5.20;;;19.10;99.90;;;;;;5016453;28;20846;-83
2023/10/02 01:06:29;;;;;;;6.73;6.03;;;19.10;99.90;;;;;;5015736;28;20453;-84
2023/10/02 01:09:00;;;;;;;6.53;5.33;;;19.10;99.90;;;;;;5015977;28;20846;-86
2023/10/02 01:11:27;;;;;;;6.33;4.40;;;19.10;99.90;;;;;;5005723;28;21027;-83
2023/10/02 01:13:54;;;;;;;7.70;5.30;;;19.10;99.90;;;;;;5015315;28;20469;-85
2023/10/02 01:16:21;;;;;;;8.33;5.93;;;19.10;99.90;;;;;;5016851;28;20574;-85
2023/10/02 01:18:50;;;;;;;5.97;4.93;;;19.10;99.90;;;;;;5019288;28;20552;-84
2023/10/02 01:21:24;;;;;;;6.13;4.83;;;19.10;99.90;;;;;;5034183;28;20463;-87
2023/10/02 01:26:50;;;;;;;7.00;5.20;;;19.10;99.90;;;;;;5118318;27;20643;-87
2023/10/02 01:29:18;;;;;;;5.67;4.80;;;19.10;99.90;;;;;;5070387;28;20853;-87
2023/10/02 01:31:47;;;;;;;5.37;4.90;;;19.10;99.90;;;;;;5070950;28;20549;-87
2023/10/02 01:34:33;;;;;;;7.43;6.17;;;19.10;99.90;;;;;;5070758;28;20971;-85
2023/10/02 01:37:32;;;;;;;7.20;5.57;;;19.10;99.90;;;;;;5076398;28;20473;-85
2023/10/02 01:40:28;;;;;;;7.03;5.00;;;19.10;99.90;;;;;;5070839;28;20462;-86
2023/10/02 01:42:45;;;;;;;5.37;4.87;;;19.20;99.90;;;;;;5074905;28;21006;-85
2023/10/02 01:45:12;;;;;;;5.90;4.87;;;19.10;99.90;;;;;;5070272;28;20931;-87
2023/10/02 01:47:41;;;;;;;4.40;4.00;;;19.20;99.90;;;;;;5069868;28;20455;-85
2023/10/02 01:50:09;;;;;;;5.53;5.00;;;19.20;99.90;;;;;;5070270;28;20467;-86
2023/10/02 01:52:37;;;;;;;6.90;5.03;;;19.20;99.90;;;;;;5070665;28;20470;-86
2023/10/02 01:55:05;;;;;;;7.47;5.23;;;19.20;99.90;;;;;;5069875;28;20467;-84
2023/10/02 01:57:36;;;;;;;6.40;4.80;;;19.20;99.90;;;;;;5074689;28;20505;-84
2023/10/02 02:00:15;;;;;;;8.10;5.27;;;19.20;99.90;;;;;;5084163;28;21041;-85
2023/10/02 02:02:49;;;;;;;7.40;5.07;;;19.20;99.90;;;;;;5070565;28;20466;-85
2023/10/02 02:05:16;;;;;;;7.50;5.63;;;19.20;99.90;;;;;;5069527;28;20921;-85
2023/10/02 02:07:44;;;;;;;5.33;4.83;;;19.20;99.90;;;;;;5070566;28;20466;-85
2023/10/02 02:10:15;;;;;;;7.63;5.47;;;19.20;99.90;;;;;;5069395;28;20478;-85
2023/10/02 02:12:45;;;;;;;6.70;5.87;;;19.20;99.90;;;;;;5070383;28;20469;-84
2023/10/02 02:15:16;;;;;;;6.13;5.00;;;19.20;99.90;;;;;;5069724;28;20466;-83
2023/10/02 02:17:44;;;;;;;7.23;4.90;;;19.20;99.90;;;;;;5070373;28;20863;-84
2023/10/02 02:20:12;;;;;;;5.70;5.10;;;19.20;99.90;;;;;;5069767;28;20503;-84
2023/10/02 02:22:39;;;;;;;7.83;5.30;;;19.20;99.90;;;;;;5070661;28;20524;-86
2023/10/02 02:25:06;;;;;;;6.30;5.70;;;19.20;99.90;;;;;;5068826;28;20474;-85
2023/10/02 02:27:36;;;;;;;7.33;5.57;;;19.20;99.90;;;;;;5076615;28;20466;-86
2023/10/02 02:30:10;;;;;;;8.00;6.13;;;19.20;99.90;;;;;;5069436;28;20462;-84
2023/10/02 02:32:44;;;;;;;6.80;5.30;;;19.20;99.90;;;;;;5070789;28;20470;-87
2023/10/02 02:35:14;;;;;;;6.60;5.90;;;19.20;99.90;;;;;;5069485;28;20528;-85
2023/10/02 02:37:51;;;;;;;5.20;4.57;;;19.20;99.90;;;;;;5059784;28;20548;-87
2023/10/02 02:40:25;;;;;;;6.30;5.03;;;19.20;99.90;;;;;;5057119;28;20467;-84
2023/10/02 02:42:54;;;;;;;8.03;5.20;;;19.20;99.90;;;;;;5057729;28;20551;-86
2023/10/02 02:45:28;;;;;;;5.60;5.00;;;19.20;99.90;;;;;;5058173;28;20467;-84
2023/10/02 02:47:57;;;;;;;7.40;5.37;;;19.20;99.90;;;;;;5060856;28;20596;-84
2023/10/02 02:50:28;;;;;;;5.13;4.63;;;19.20;99.90;;;;;;5094233;28;20553;-86
2023/10/02 02:53:16;;;;;;;6.27;4.90;;;19.20;99.90;;;;;;5110230;28;20457;-86
2023/10/02 02:55:43;;;;;;;6.33;5.10;;;19.20;99.90;;;;;;5116091;28;20454;-85
2023/10/02 02:58:12;;;;;;;6.00;4.70;;;19.20;99.90;;;;;;5113471;28;20484;-85
2023/10/02 03:00:40;;;;;;;6.90;5.40;;;19.10;99.90;;;;;;5109609;28;20465;-84
2023/10/02 03:05:58;;;;;;;5.90;5.30;;;19.10;99.90;;;;;;5097949;28;20985;-84
2023/10/02 03:08:37;;;;;;;20.50;16.50;;;19.10;99.90;;;;;;5096795;28;20479;-85
2023/10/02 03:11:07;;;;;;;16.23;14.17;;;19.10;99.90;;;;;;5095394;27;20457;-84
2023/10/02 03:13:39;;;;;;;12.30;10.93;;;19.10;99.90;;;;;;5095238;28;20473;-86
2023/10/02 03:16:18;;;;;;;11.13;9.63;;;19.10;99.90;;;;;;5098165;28;20468;-86
2023/10/02 03:18:48;;;;;;;11.13;9.40;;;19.10;99.90;;;;;;5104627;28;20539;-85
2023/10/02 03:21:24;;;;;;;8.60;7.63;;;19.00;99.90;;;;;;5095914;28;20462;-85
2023/10/02 03:23:53;;;;;;;7.70;5.83;;;19.00;99.90;;;;;;5097267;28;20474;-86
2023/10/02 03:26:39;;;;;;;10.07;7.27;;;19.00;99.90;;;;;;5098774;28;20465;-85
2023/10/02 03:29:53;;;;;;;7.63;6.80;;;18.90;99.90;;;;;;5097848;28;20771;-85
2023/10/02 03:32:20;;;;;;;6.70;6.00;;;19.00;99.90;;;;;;5087669;28;20522;-85
2023/10/02 03:35:02;;;;;;;6.50;5.90;;;18.90;99.90;;;;;;5098191;28;20488;-85
2023/10/02 03:37:32;;;;;;;8.53;5.43;;;18.90;99.90;;;;;;5098275;28;20469;-85
2023/10/02 03:40:14;;;;;;;6.53;5.77;;;18.80;99.90;;;;;;5095967;28;20465;-85
2023/10/02 03:45:51;;;;;;;7.13;5.57;;;18.80;99.90;;;;;;5096438;28;20481;-85
2023/10/02 03:48:18;;;;;;;6.97;6.07;;;18.80;99.90;;;;;;5096193;28;20465;-85
2023/10/02 03:50:46;;;;;;;6.07;5.47;;;18.70;99.90;;;;;;5101866;28;20494;-84
2023/10/02 03:53:44;;;;;;;7.03;6.30;;;18.70;99.90;;;;;;5097166;28;20466;-84
2023/10/02 03:56:38;;;;;;;7.47;5.10;;;18.70;99.90;;;;;;5086715;28;20945;-86
2023/10/02 03:59:17;;;;;;;7.37;5.50;;;18.70;99.90;;;;;;5094599;28;20540;-87
2023/10/02 04:01:47;;;;;;;8.20;6.43;;;18.70;99.90;;;;;;5095460;28;20464;-86
2023/10/02 04:04:21;;;;;;;6.83;6.13;;;18.60;99.90;;;;;;5099690;28;20508;-85
2023/10/02 04:06:53;;;;;;;6.43;5.33;;;18.60;99.90;;;;;;5100386;28;20460;-86
2023/10/02 04:09:25;;;;;;;10.17;6.37;;;18.60;99.90;;;;;;5086446;28;20569;-85
2023/10/02 04:11:54;;;;;;;7.83;5.60;;;18.60;99.90;;;;;;5096180;28;20469;-86
2023/10/02 04:14:31;;;;;;;6.63;5.10;;;18.60;99.90;;;;;;5096036;28;20469;-86
2023/10/02 04:17:34;;;;;;;6.97;5.57;;;18.60;99.90;;;;;;5095537;28;20469;-84
2023/10/02 04:20:26;;;;;;;7.93;5.80;;;18.60;99.90;;;;;;5096760;28;20846;-85
2023/10/02 04:22:51;;;;;;;10.40;6.60;;;18.50;99.90;;;;;;5097054;28;20954;-85
2023/10/02 04:25:17;;;;;;;6.77;5.43;;;18.50;99.90;;;;;;5094361;28;20458;-84
2023/10/02 04:30:26;;;;;;;6.43;5.63;;;18.50;99.90;;;;;;5094472;28;20457;-84
2023/10/02 04:32:59;;;;;;;8.63;6.80;;;18.50;99.90;;;;;;5095797;28;20497;-84
2023/10/02 04:38:14;;;;;;;6.83;6.10;;;18.40;99.90;;;;;;5092027;28;20499;-84
2023/10/02 04:40:49;;;;;;;14.77;8.57;;;18.40;99.90;;;;;;5094720;28;20523;-84
2023/10/02 04:43:23;;;;;;;9.53;7.60;;;18.40;99.90;;;;;;5095234;28;20540;-84
2023/10/02 04:45:52;;;;;;;9.63;6.70;;;18.40;99.90;;;;;;5095474;28;20470;-84
2023/10/02 04:48:26;;;;;;;8.93;7.10;;;18.40;99.90;;;;;;5093898;28;20500;-84
2023/10/02 04:50:56;;;;;;;7.17;6.00;;;18.40;99.90;;;;;;5095938;28;20524;-85
2023/10/02 04:53:24;;;;;;;8.10;6.53;;;18.30;99.90;;;;;;5094533;28;20540;-85
2023/10/02 04:58:39;;;;;;;9.40;7.00;;;18.30;99.90;;;;;;5087988;28;20457;-84
2023/10/02 05:01:24;;;;;;;11.20;6.50;;;18.30;99.90;;;;;;5102119;28;20457;-85
2023/10/02 05:03:52;;;;;;;9.23;6.47;;;18.30;99.90;;;;;;5106039;28;20461;-84
2023/10/02 05:06:43;;;;;;;7.50;6.63;;;18.20;99.90;;;;;;5108286;28;20518;-86
2023/10/02 05:09:32;;;;;;;9.40;7.27;;;18.20;99.90;;;;;;5108738;28;20465;-83
2023/10/02 05:12:22;;;;;;;10.67;7.00;;;18.20;99.90;;;;;;5112167;28;20457;-85
2023/10/02 05:14:51;;;;;;;10.33;7.93;;;18.20;99.90;;;;;;5107109;28;20594;-84
2023/10/02 05:17:41;;;;;;;9.67;8.10;;;18.20;99.90;;;;;;5103406;28;20460;-84
2023/10/02 05:20:13;;;;;;;9.87;8.57;;;18.20;99.90;;;;;;5109166;28;20971;-85
2023/10/02 05:22:58;;;;;;;10.90;7.50;;;18.20;99.90;;;;;;5106097;28;20478;-83
2023/10/02 05:25:37;;;;;;;8.33;7.53;;;18.10;99.90;;;;;;5109963;28;20469;-85
2023/10/02 05:28:05;;;;;;;8.73;6.43;;;18.10;99.90;;;;;;5098828;28;20473;-84
2023/10/02 06:02:35;;;;;;;10.63;8.50;;;18.10;99.90;;;;;;5129649;23;20460;-87
2023/10/02 06:32:22;;;;;;;8.13;6.80;;;18.30;99.90;;;;;;4982486;28;20464;-86
2023/10/02 06:34:52;;;;;;;10.97;8.40;;;18.40;99.90;;;;;;5052282;28;20478;-86
2023/10/02 06:37:40;;;;;;;9.10;8.20;;;18.40;99.90;;;;;;5076975;28;20470;-85
2023/10/02 07:05:12;;;;;;;9.87;7.90;;;18.60;99.90;;;;;;4844882;29;20505;-86
2023/10/02 07:07:58;;;;;;;8.10;6.53;;;18.60;99.90;;;;;;4868887;29;20482;-86
2023/10/02 07:10:41;;;;;;;13.10;9.10;;;18.70;99.90;;;;;;4899512;29;20481;-85
2023/10/02 07:13:55;;;;;;;9.73;7.40;;;18.70;99.90;;;;;;4889474;29;20462;-86
2023/10/02 07:19:41;;;;;;;10.00;7.90;;;18.80;99.90;;;;;;4945665;28;20480;-84
2023/10/02 07:22:43;;;;;;;11.90;7.77;;;18.80;99.90;;;;;;5038259;28;20494;-85
2023/10/02 07:25:50;;;;;;;9.90;7.83;;;18.90;99.90;;;;;;5023398;28;20568;-86
2023/10/02 07:34:02;;;;;;;9.47;7.37;;;19.00;99.90;;;;;;5032348;28;21292;-85
2023/10/02 07:36:44;;;;;;;10.67;9.10;;;19.10;99.90;;;;;;5034185;28;20477;-86
2023/10/02 07:42:18;;;;;;;11.93;7.50;;;19.20;99.90;;;;;;5079095;28;20466;-84
2023/10/02 07:44:56;;;;;;;13.60;8.93;;;19.20;99.90;;;;;;5059874;28;20474;-85
2023/10/02 07:50:33;;;;;;;11.70;8.33;;;19.30;99.90;;;;;;5020848;28;20470;-85
2023/10/02 07:53:38;;;;;;;11.10;8.07;;;19.40;99.90;;;;;;5053774;28;20474;-85
2023/10/02 07:56:47;;;;;;;13.13;9.50;;;19.40;99.90;;;;;;5072801;28;20561;-86
2023/10/02 07:59:31;;;;;;;13.10;9.13;;;19.50;99.90;;;;;;5060105;28;20485;-85
2023/10/02 08:05:19;;;;;;;10.60;8.03;;;19.60;99.90;;;;;;5073824;28;20467;-85
2023/10/02 08:08:08;;;;;;;13.63;8.60;;;19.60;99.90;;;;;;5057980;28;20469;-85
2023/10/02 08:10:53;;;;;;;15.03;11.13;;;19.70;99.90;;;;;;5074022;28;20473;-84
2023/10/02 08:13:32;;;;;;;15.87;12.53;;;19.80;99.90;;;;;;5074396;28;20472;-86
2023/10/02 08:16:07;;;;;;;18.27;13.63;;;19.90;99.90;;;;;;5072905;28;20468;-86
2023/10/02 08:18:55;;;;;;;16.13;12.27;;;20.00;99.90;;;;;;5063966;28;20474;-85
2023/10/02 08:28:23;;;;;;;16.83;13.67;;;20.30;99.90;;;;;;4939598;28;20475;-84
2023/10/02 08:41:19;;;;;;;19.10;15.30;;;20.60;99.90;;;;;;4991073;28;20513;-85
2023/10/02 08:47:30;;;;;;;20.20;16.10;;;20.70;99.90;;;;;;5036688;28;20471;-84
2023/10/02 08:53:55;;;;;;;;;;;;;;;;;;;;;
2023/10/02 08:56:50;;;;;;;;;;;;;;;;;;;;;
2023/10/02 09:02:26;;;;;;;;;;;;;;;;;;;;;
2023/10/02 09:08:31;;;;;;;;;;;;;;;;;;;;;
2023/10/02 09:11:12;;;;;;;11.73;9.03;;;21.10;99.90;;;;;;5056572;28;20462;-86
2023/10/02 09:14:16;;;;;;;11.63;8.60;;;21.10;99.90;;;;;;5044961;28;20467;-84
2023/10/02 09:17:07;;;;;;;11.70;8.70;;;21.20;99.90;;;;;;5054777;28;20858;-84
2023/10/02 09:19:48;;;;;;;12.50;8.83;;;21.30;99.90;;;;;;5036353;28;20510;-86
2023/10/02 09:23:07;;;;;;;;;;;;;;;;;;;;;
2023/10/02 09:28:41;;;;;;;11.20;9.10;;;21.50;99.90;;;;;;5062313;28;20471;-86
2023/10/02 09:31:15;;;;;;;11.50;9.60;;;21.60;99.90;;;;;;5065392;28;20462;-85
2023/10/02 09:42:36;;;;;;;;;;;;;;;;;;;;;
2023/10/02 09:49:09;;;;;;;12.07;9.23;;;22.00;99.90;;;;;;4996535;28;20547;-86
2023/10/02 09:55:52;;;;;;;8.93;8.03;;;22.20;99.90;;;;;;4961115;28;20471;-86
2023/10/02 09:59:15;;;;;;;9.10;8.20;;;22.20;99.90;;;;;;4887723;29;20561;-85
2023/10/02 10:06:05;;;;;;;12.20;8.93;;;22.30;99.90;;;;;;5015840;28;20873;-86
2023/10/02 10:09:27;;;;;;;12.10;8.03;;;22.40;99.90;;;;;;5005077;28;20488;-86
2023/10/02 10:14:44;;;;;;;9.10;7.73;;;22.50;99.90;;;;;;5076259;28;20473;-85
2023/10/02 10:17:49;;;;;;;12.23;8.60;;;22.60;99.90;;;;;;5080073;28;20466;-86
2023/10/02 10:20:44;;;;;;;11.90;8.27;;;22.60;99.90;;;;;;5078829;28;20459;-87
2023/10/02 10:23:34;;;;;;;10.20;7.40;;;22.70;99.90;;;;;;5078876;28;20472;-86
2023/10/02 10:26:45;;;;;;;11.50;7.90;;;22.70;99.90;;;;;;5076526;28;21073;-85
2023/10/02 10:36:38;;;;;;;10.00;7.87;;;22.90;99.90;;;;;;4958621;29;20461;-86
2023/10/02 10:39:42;;;;;;;9.47;7.40;;;22.90;99.90;;;;;;4949266;29;20471;-85
2023/10/02 10:42:15;;;;;;;8.80;7.90;;;22.90;99.90;;;;;;4977929;28;20491;-84
2023/10/02 10:44:52;;;;;;;8.40;7.20;;;22.90;99.90;;;;;;5033376;28;20468;-88
2023/10/02 10:47:54;;;;;;;;;;;;;;;;;;;;;
2023/10/02 10:50:39;;;;;;;7.93;6.43;;;23.00;99.90;;;;;;5078736;28;20480;-85
2023/10/02 10:55:55;;;;;;;9.20;7.83;;;23.00;99.90;;;;;;5056231;28;20509;-84
2023/10/02 10:58:37;;;;;;;13.00;8.63;;;23.00;99.90;;;;;;5060747;28;20535;-85
2023/10/02 11:01:17;;;;;;;11.57;7.10;;;23.00;99.90;;;;;;5059486;28;20536;-87
2023/10/02 11:07:02;;;;;;;;;;;;;;;;;;;;;
2023/10/02 11:10:21;;;;;;;9.50;6.80;;;23.00;99.90;;;;;;5027425;28;21022;-86
2023/10/02 11:13:18;;;;;;;7.80;6.23;;;23.00;99.90;;;;;;5031965;28;20476;-85
2023/10/02 11:16:07;;;;;;;10.30;7.83;;;23.00;99.90;;;;;;5054605;28;20506;-85
2023/10/02 11:18:39;;;;;;;8.33;7.30;;;23.00;99.90;;;;;;5056577;28;20467;-86
2023/10/02 11:21:23;;;;;;;9.00;7.50;;;23.00;99.90;;;;;;5056629;28;20462;-86
2023/10/02 11:23:57;;;;;;;9.30;6.30;;;23.00;99.90;;;;;;5064301;28;20461;-85
2023/10/02 11:26:28;;;;;;;6.90;6.20;;;23.00;99.90;;;;;;5049097;28;20869;-85
2023/10/02 11:28:59;;;;;;;10.03;6.67;;;23.00;99.90;;;;;;5054002;28;20481;-85
2023/10/02 11:35:11;;;;;;;11.50;7.83;;;23.10;99.90;;;;;;5050217;28;20538;-85
2023/10/02 11:37:46;;;;;;;7.77;6.20;;;23.10;99.90;;;;;;5055944;28;20477;-85
2023/10/02 11:43:56;;;;;;;9.07;7.20;;;23.10;99.90;;;;;;5022024;28;20466;-87
2023/10/02 11:46:26;;;;;;;8.20;7.30;;;23.10;99.90;;;;;;5017066;28;22018;-86
2023/10/02 11:48:59;;;;;;;10.27;8.03;;;23.10;99.90;;;;;;5038702;28;20459;-86
2023/10/02 11:51:45;;;;;;;;;;;;;;;;;;;;;
2023/10/02 11:54:17;;;;;;;8.37;7.07;;;23.10;99.90;;;;;;5064672;28;20459;-84
2023/10/02 11:56:50;;;;;;;8.13;7.30;;;23.20;99.90;;;;;;5067165;28;20479;-85
2023/10/02 11:59:20;;;;;;;8.00;6.57;;;23.20;99.90;;;;;;5058630;28;20487;-85
2023/10/02 12:08:47;;;;;;;10.70;8.33;;;23.30;99.90;;;;;;5081035;28;20508;-85
2023/10/02 12:15:10;;;;;;;8.87;7.50;;;23.40;99.90;;;;;;4985678;28;20465;-86
2023/10/02 12:18:40;;;;;;;11.17;7.90;;;23.30;99.90;;;;;;5043550;28;20716;-86
2023/10/02 12:28:21;;;;;;;9.43;7.93;;;23.30;99.90;;;;;;5093035;28;20539;-87
2023/10/02 12:31:15;;;;;;;9.40;7.00;;;23.30;99.90;;;;;;5067583;28;20468;-85
2023/10/02 12:43:55;;;;;;;9.60;7.13;;;23.30;99.90;;;;;;5031659;28;20470;-86
2023/10/02 12:49:59;;;;;;;8.00;6.10;;;23.30;99.90;;;;;;5110983;28;20481;-87
2023/10/02 12:53:14;;;;;;;;;;;;;;;;;;;;;
2023/10/02 13:09:19;;;;;;;;;;;;;;;;;;;;;
2023/10/02 13:12:36;;;;;;;11.47;7.60;;;23.20;99.90;;;;;;4973691;28;20458;-86
2023/10/02 13:16:01;;;;;;;8.83;6.90;;;23.20;99.90;;;;;;4991575;28;20617;-85
2023/10/02 13:19:09;;;;;;;8.23;6.83;;;23.20;99.90;;;;;;4961582;28;20478;-86
2023/10/02 13:22:21;;;;;;;13.50;7.67;;;23.20;99.90;;;;;;4984760;28;20480;-85
2023/10/02 13:25:29;;;;;;;8.10;7.13;;;23.20;99.90;;;;;;4993068;22;20491;-86
2023/10/02 13:28:24;;;;;;;7.13;6.40;;;23.20;99.90;;;;;;5072310;28;20471;-86
2023/10/02 13:30:54;;;;;;;8.50;6.17;;;23.20;99.90;;;;;;5050689;28;20512;-85
2023/10/02 13:36:40;;;;;;;8.00;6.90;;;23.20;99.90;;;;;;5046254;28;20463;-86
2023/10/02 13:39:19;;;;;;;8.07;6.80;;;23.20;99.90;;;;;;5042128;28;20482;-85
2023/10/02 13:42:10;;;;;;;7.60;6.80;;;23.20;99.90;;;;;;5054766;28;20561;-85
2023/10/02 13:54:37;;;;;;;6.90;6.20;;;23.10;99.90;;;;;;5032292;28;20955;-85
2023/10/02 13:57:04;;;;;;;6.80;6.10;;;23.10;99.90;;;;;;5054036;28;20812;-86
2023/10/02 13:59:36;;;;;;;9.13;7.60;;;23.20;99.90;;;;;;5055117;28;20521;-85
2023/10/02 14:04:48;;;;;;;8.20;6.53;;;23.20;99.90;;;;;;5042751;28;20493;-86
2023/10/02 14:07:37;;;;;;;7.67;6.97;;;23.20;99.90;;;;;;5054377;28;20474;-85
2023/10/02 14:10:26;;;;;;;8.97;6.70;;;23.20;99.90;;;;;;5055929;28;20864;-84
2023/10/02 14:12:53;;;;;;;6.43;5.30;;;23.20;99.90;;;;;;5058115;28;20500;-85
2023/10/02 14:15:21;;;;;;;8.63;7.07;;;23.20;99.90;;;;;;5054038;28;20466;-86
2023/10/02 14:17:49;;;;;;;10.30;7.17;;;23.20;99.90;;;;;;5043358;28;20554;-87
2023/10/02 14:20:17;;;;;;;7.07;6.10;;;23.20;99.90;;;;;;5030620;28;20470;-86
2023/10/02 14:22:50;;;;;;;10.63;7.27;;;23.20;99.90;;;;;;5052806;28;20481;-86
2023/10/02 14:25:47;;;;;;;7.77;6.30;;;23.20;99.90;;;;;;5052761;28;20544;-84
2023/10/02 14:28:25;;;;;;;;;;;;;;;;;;;;;
2023/10/02 14:30:53;;;;;;;8.33;6.17;;;23.20;99.90;;;;;;5043021;28;20483;-86
2023/10/02 14:33:24;;;;;;;9.20;6.17;;;23.20;99.90;;;;;;5036326;28;20969;-86
2023/10/02 14:36:06;;;;;;;7.13;6.43;;;23.20;99.90;;;;;;5056918;28;20477;-86
2023/10/02 14:38:43;;;;;;;8.03;5.70;;;23.20;99.90;;;;;;5046756;28;20797;-86
2023/10/02 14:41:52;;;;;;;6.93;6.20;;;23.10;99.90;;;;;;5044250;28;21169;-86
2023/10/02 14:45:11;;;;;;;6.90;5.70;;;23.20;99.90;;;;;;5017866;28;20820;-87
2023/10/02 14:47:57;;;;;;;7.47;5.60;;;23.20;99.90;;;;;;5058217;28;20463;-85
2023/10/02 14:50:26;;;;;;;7.00;6.17;;;23.10;99.90;;;;;;5047679;28;20483;-85
2023/10/02 14:53:00;;;;;;;6.90;5.97;;;23.10;99.90;;;;;;5060697;28;20469;-85
2023/10/02 14:59:00;;;;;;;7.17;5.70;;;23.10;99.90;;;;;;5007892;28;20551;-86
2023/10/02 15:04:48;;;;;;;7.57;6.83;;;23.10;99.90;;;;;;5055100;28;20782;-85
2023/10/02 15:07:36;;;;;;;8.77;7.87;;;23.10;99.90;;;;;;5057351;28;20474;-85
2023/10/02 15:10:06;;;;;;;7.10;6.43;;;23.10;99.90;;;;;;5061561;28;20490;-85
2023/10/02 15:12:37;;;;;;;7.70;6.53;;;23.20;99.90;;;;;;5053667;28;20463;-84
2023/10/02 15:15:13;;;;;;;6.67;5.00;;;23.10;99.90;;;;;;5043638;28;20539;-86
2023/10/02 15:21:00;;;;;;;6.90;5.50;;;23.00;99.90;;;;;;5038137;28;20548;-85
2023/10/02 15:26:46;;;;;;;14.63;9.90;;;23.10;99.90;;;;;;5045576;28;20565;-84
2023/10/02 15:29:16;;;;;;;26.33;23.67;;;23.10;99.90;;;;;;5059271;28;20467;-86
2023/10/02 15:31:59;;;;;;;27.57;24.80;;;23.20;99.90;;;;;;5038552;28;20482;-85
2023/10/02 15:37:40;;;;;;;24.27;21.87;;;23.10;99.90;;;;;;5029845;28;20475;-87
2023/10/02 15:40:14;;;;;;;22.23;19.97;;;23.10;99.90;;;;;;5038656;28;20477;-86
2023/10/02 15:42:50;;;;;;;17.20;15.50;;;23.10;99.90;;;;;;5041481;28;20470;-86
2023/10/02 15:45:25;;;;;;;19.87;17.73;;;23.10;99.90;;;;;;5043954;28;20491;-86
2023/10/02 15:52:12;;;;;;;25.50;22.80;;;23.00;99.90;;;;;;5030691;28;20498;-86
2023/10/02 15:55:01;;;;;;;31.83;28.50;;;23.00;99.90;;;;;;5015759;28;20482;-85
2023/10/02 15:57:40;;;;;;;37.07;33.07;;;22.90;99.90;;;;;;5023100;28;20811;-87
2023/10/02 16:00:23;;;;;;;36.90;33.10;;;22.90;99.90;;;;;;5023988;28;20471;-87
2023/10/02 16:05:46;;;;;;;40.10;35.53;;;22.90;99.90;;;;;;5024062;28;20531;-85
2023/10/02 16:08:13;;;;;;;44.47;39.97;;;22.80;99.90;;;;;;5026866;28;20471;-84
2023/10/02 16:10:44;;;;;;;44.30;39.83;;;22.80;99.90;;;;;;5024415;28;20881;-84
2023/10/02 16:13:16;;;;;;;45.90;40.47;;;22.80;99.90;;;;;;5023643;28;20501;-84
2023/10/02 16:16:01;;;;;;;46.83;42.03;;;22.70;99.90;;;;;;5420114;22;20727;-84
2023/10/02 16:22:01;;;;;;;52.13;46.70;;;22.70;99.90;;;;;;5071501;28;20469;-86
2023/10/02 16:24:34;;;;;;;54.00;46.37;;;22.60;99.90;;;;;;5049212;28;20456;-84
2023/10/02 16:27:16;;;;;;;50.03;44.73;;;22.60;99.90;;;;;;5055837;28;20463;-86
2023/10/02 16:29:45;;;;;;;52.00;46.70;;;22.60;99.90;;;;;;5034145;28;21034;-86
2023/10/02 16:35:05;;;;;;;40.70;36.30;;;22.50;99.90;;;;;;5030360;28;20475;-84
2023/10/02 16:37:52;;;;;;;42.47;37.97;;;22.50;99.90;;;;;;5024537;28;20937;-85
2023/10/02 16:40:23;;;;;;;44.77;37.80;;;22.50;99.90;;;;;;5053688;28;20461;-84
2023/10/02 16:42:53;;;;;;;45.23;39.70;;;22.50;99.90;;;;;;5046006;28;20537;-84
2023/10/02 16:45:49;;;;;;;39.87;35.50;;;22.40;99.90;;;;;;5054266;28;20502;-85
2023/10/02 16:48:26;;;;;;;32.27;28.90;;;22.40;99.90;;;;;;5053891;28;20502;-84
2023/10/02 16:51:00;;;;;;;31.23;27.23;;;22.40;99.90;;;;;;5045104;28;20498;-87
2023/10/02 16:53:47;;;;;;;31.70;28.00;;;22.40;99.90;;;;;;5041861;28;20484;-86
2023/10/02 16:56:18;;;;;;;29.93;25.23;;;22.40;99.90;;;;;;5043793;28;20479;-85
2023/10/02 16:59:20;;;;;;;29.13;24.33;;;22.30;99.90;;;;;;5030474;28;20479;-85
2023/10/02 17:02:20;;;;;;;;;;;;;;;;;;;;;
2023/10/02 17:04:51;;;;;;;35.73;27.60;;;22.30;99.90;;;;;;5041327;28;20463;-87
2023/10/02 17:07:18;;;;;;;31.57;27.90;;;22.20;99.90;;;;;;5053492;28;20463;-87
2023/10/02 17:10:12;;;;;;;35.53;31.27;;;22.20;99.90;;;;;;5053786;28;20551;-86
2023/10/02 17:12:43;;;;;;;49.10;43.77;;;22.20;99.90;;;;;;5027440;28;20792;-88
2023/10/02 17:15:15;;;;;;;41.23;36.73;;;22.20;99.90;;;;;;5051061;28;20472;-86
2023/10/02 17:21:17;;;;;;;35.67;32.07;;;22.10;99.90;;;;;;5034314;28;20505;-85
2023/10/02 17:23:47;;;;;;;35.93;32.23;;;22.10;99.90;;;;;;5034328;28;20468;-85
2023/10/02 17:26:23;;;;;;;36.77;32.90;;;22.00;99.90;;;;;;5015494;28;20550;-84
2023/10/02 17:28:50;;;;;;;37.20;33.33;;;22.00;99.90;;;;;;5010638;28;20486;-85
2023/10/02 17:31:26;;;;;;;38.60;32.87;;;22.00;99.90;;;;;;5002886;28;20483;-84
2023/10/02 17:34:03;;;;;;;;;;;;;;;;;;;;;
2023/10/02 17:40:13;;;;;;;37.70;33.60;;;21.90;99.90;;;;;;5053098;28;20536;-84
2023/10/02 17:42:43;;;;;;;36.23;32.47;;;21.90;99.90;;;;;;5054397;28;20467;-85
2023/10/02 17:45:13;;;;;;;44.20;37.40;;;21.90;99.90;;;;;;5054478;28;20471;-87
2023/10/02 17:47:51;;;;;;;52.63;45.63;;;21.90;99.90;;;;;;5055714;28;20456;-87
2023/10/02 17:50:29;;;;;;;39.27;35.07;;;21.90;99.90;;;;;;5056429;28;20491;-86
2023/10/02 17:56:14;;;;;;;34.70;31.10;;;21.80;99.90;;;;;;5028771;28;20883;-87
2023/10/02 18:02:22;;;;;;;31.97;27.20;;;21.80;99.90;;;;;;4986479;28;20965;-86
2023/10/02 18:04:53;;;;;;;36.67;32.87;;;21.80;99.90;;;;;;5034937;28;20484;-87
2023/10/02 18:07:34;;;;;;;49.87;44.77;;;21.70;99.90;;;;;;5036879;28;20499;-86
2023/10/02 18:10:04;;;;;;;50.07;45.17;;;21.70;99.90;;;;;;5029435;28;20488;-85
2023/10/02 18:12:33;;;;;;;51.47;46.27;;;21.70;99.90;;;;;;5032709;28;20506;-86
2023/10/02 18:18:14;;;;;;;48.77;43.67;;;21.70;99.90;;;;;;5029229;28;20527;-87
2023/10/02 18:20:55;;;;;;;44.00;39.70;;;21.70;99.90;;;;;;5035486;28;20475;-87
2023/10/02 18:24:18;;;;;;;46.83;41.67;;;21.70;99.90;;;;;;5051753;28;20853;-86
2023/10/02 18:30:43;;;;;;;41.10;36.77;;;21.60;99.90;;;;;;4947384;28;20492;-88
2023/10/02 18:33:30;;;;;;;38.60;34.50;;;21.60;99.90;;;;;;5003360;28;20505;-87
2023/10/02 18:36:13;;;;;;;36.23;32.40;;;21.60;99.90;;;;;;5052014;28;20505;-89
2023/10/02 18:38:59;;;;;;;;;;;;;;;;;;;;;
2023/10/02 18:41:56;;;;;;;43.77;39.47;;;21.50;99.90;;;;;;5061976;28;21000;-87
2023/10/02 18:44:26;;;;;;;54.50;48.93;;;21.50;99.90;;;;;;5054973;28;20546;-87
2023/10/02 18:47:07;;;;;;;51.60;46.20;;;21.50;99.90;;;;;;5073043;28;20462;-84
2023/10/02 18:49:52;;;;;;;55.73;49.80;;;21.50;99.90;;;;;;5067298;28;20767;-86
2023/10/02 18:53:12;;;;;;;;;;;;;;;;;;;;;
2023/10/02 18:55:50;;;;;;;47.93;43.07;;;21.50;99.90;;;;;;5064145;28;20475;-88
2023/10/02 19:11:07;;;;;;;45.23;40.53;;;21.40;99.90;;;;;;4923854;29;21468;-87
2023/10/02 19:13:48;;;;;;;42.37;38.27;;;21.30;99.90;;;;;;4931545;28;20477;-88
2023/10/02 19:26:54;;;;;;;66.60;52.57;;;21.20;99.90;;;;;;5016256;22;20519;-87
2023/10/02 19:30:17;;;;;;;48.63;43.30;;;21.20;99.90;;;;;;5011944;28;20477;-86
2023/10/02 19:32:57;;;;;;;43.13;38.10;;;21.20;99.90;;;;;;5009983;28;20480;-87
2023/10/02 19:39:37;;;;;;;63.43;51.50;;;21.20;99.90;;;;;;4924186;28;20640;-87
2023/10/02 19:42:29;;;;;;;60.53;52.50;;;21.20;99.90;;;;;;5020350;28;21048;-88